createdAt,value
2023-05-22T00:01:45.601Z,101756.70
2023-05-22T00:04:30.280Z,101752.49
2023-05-22T00:07:30.475Z,101749.17
2023-05-22T00:10:38.532Z,101746.77
2023-05-22T00:13:55.426Z,101747.11
2023-05-22T00:17:06.036Z,101740.52
2023-05-22T00:19:57.177Z,101743.19
2023-05-22T00:23:06.569Z,101748.02
2023-05-22T00:26:16.273Z,101743.16
2023-05-22T00:29:24.857Z,101736.52
2023-05-22T00:32:23.782Z,101734.98
2023-05-22T00:35:35.568Z,101730.52
2023-05-22T00:38:39.502Z,101729.86
2023-05-22T00:41:39.402Z,101730.11
2023-05-22T00:44:49.299Z,101725.38
2023-05-22T00:47:47.566Z,101722.15
2023-05-22T00:50:56.439Z,101723.64
2023-05-22T00:54:05.251Z,101723.17
2023-05-22T00:56:58.181Z,101720.46
2023-05-22T01:00:07.784Z,101717.48
2023-05-22T01:03:11.082Z,101713.44
2023-05-22T01:06:20.585Z,101713.23
2023-05-22T01:09:31.517Z,101713.88
2023-05-22T01:12:47.725Z,101718.06
2023-05-22T01:15:41.054Z,101715.13
2023-05-22T01:18:58.185Z,101716.64
2023-05-22T01:22:06.270Z,101716.99
2023-05-22T01:25:16.603Z,101715.27
2023-05-22T01:28:35.865Z,101710.57
2023-05-22T01:31:48.006Z,101711.02
2023-05-22T01:34:57.680Z,101709.67
2023-05-22T01:38:06.898Z,101707.70
2023-05-22T01:40:59.465Z,101705.19
2023-05-22T01:44:03.356Z,101702.80
2023-05-22T01:47:06.226Z,101702.33
2023-05-22T01:50:06.721Z,101704.39
2023-05-22T01:53:15.996Z,101701.50
2023-05-22T01:56:29.500Z,101696.92
2023-05-22T01:59:51.591Z,101695.36
2023-05-22T02:02:55.065Z,101695.95
2023-05-22T02:06:06.591Z,101694.58
2023-05-22T02:09:20.040Z,101695.55
2023-05-22T02:12:30.408Z,101691.36
2023-05-22T02:15:42.312Z,101689.02
2023-05-22T02:18:52.252Z,101688.65
2023-05-22T02:22:03.101Z,101687.53
2023-05-22T02:25:03.241Z,101690.55
2023-05-22T02:27:43.037Z,101688.06
2023-05-22T02:30:51.881Z,101684.89
2023-05-22T02:34:02.532Z,101682.52
2023-05-22T02:37:12.656Z,101681.20
2023-05-22T02:40:11.700Z,101683.58
2023-05-22T02:42:57.411Z,101684.21
2023-05-22T02:45:57.506Z,101686.40
2023-05-22T02:49:08.196Z,101682.38
2023-05-22T02:51:53.134Z,101680.64
2023-05-22T02:54:35.017Z,101680.09
2023-05-22T02:57:44.962Z,101685.22
2023-05-22T03:00:53.906Z,101684.41
2023-05-22T03:03:55.100Z,101681.60
2023-05-22T03:07:02.290Z,101682.50
2023-05-22T03:10:11.511Z,101676.41
2023-05-22T03:13:20.508Z,101671.92
2023-05-22T03:16:29.376Z,101668.50
2023-05-22T03:19:35.220Z,101663.14
2023-05-22T03:22:26.117Z,101658.32
2023-05-22T03:25:27.039Z,101657.77
2023-05-22T03:28:36.965Z,101659.67
2023-05-22T03:31:40.228Z,101657.80
2023-05-22T03:34:09.541Z,101660.59
2023-05-22T03:36:59.632Z,101658.46
2023-05-22T03:40:07.610Z,101656.69
2023-05-22T03:43:18.478Z,101656.64
2023-05-22T03:46:16.765Z,101655.79
2023-05-22T03:49:07.247Z,101654.63
2023-05-22T03:52:16.058Z,101653.91
2023-05-22T03:55:16.972Z,101655.86
2023-05-22T03:58:07.975Z,101654.23
2023-05-22T04:01:12.848Z,101656.53
2023-05-22T04:04:22.742Z,101658.55
2023-05-22T04:07:32.846Z,101658.32
2023-05-22T04:10:43.545Z,101657.63
2023-05-22T04:13:53.468Z,101656.10
2023-05-22T04:16:35.163Z,101658.27
2023-05-22T04:19:37.344Z,101656.11
2023-05-22T04:22:39.164Z,101655.40
2023-05-22T04:25:40.042Z,101656.04
2023-05-22T04:28:10.971Z,101656.79
2023-05-22T04:31:13.682Z,101653.61
2023-05-22T04:34:02.766Z,101654.52
2023-05-22T04:37:11.880Z,101659.49
2023-05-22T04:40:21.575Z,101662.48
2023-05-22T04:43:14.478Z,101665.10
2023-05-22T04:46:24.457Z,101664.02
2023-05-22T04:49:10.441Z,101660.90
2023-05-22T04:52:21.177Z,101658.69
2023-05-22T04:55:24.332Z,101661.19
2023-05-22T04:58:34.361Z,101661.13
2023-05-22T05:01:35.071Z,101662.74
2023-05-22T05:04:12.871Z,101663.52
2023-05-22T05:07:12.816Z,101666.41
2023-05-22T05:09:58.629Z,101671.13
2023-05-22T05:12:31.518Z,101669.83
2023-05-22T05:15:29.464Z,101671.23
2023-05-22T05:18:23.378Z,101672.89
2023-05-22T05:21:03.278Z,101671.16
2023-05-22T05:24:13.150Z,101668.11
2023-05-22T05:26:43.354Z,101666.02
2023-05-22T05:29:32.869Z,101669.19
2023-05-22T05:32:23.442Z,101671.39
2023-05-22T05:34:53.803Z,101666.27
2023-05-22T05:37:39.700Z,101662.77
2023-05-22T05:40:33.605Z,101665.18
2023-05-22T05:43:16.867Z,101664.58
2023-05-22T05:46:15.181Z,101671.12
2023-05-22T05:49:27.339Z,101667.13
2023-05-22T05:52:07.279Z,101666.08
2023-05-22T05:54:58.182Z,101668.64
2023-05-22T05:57:36.276Z,101670.45
2023-05-22T06:00:07.354Z,101671.55
2023-05-22T06:02:54.020Z,101677.27
2023-05-22T06:05:26.422Z,101679.86
2023-05-22T06:07:58.765Z,101684.24
2023-05-22T06:10:57.946Z,101683.90
2023-05-22T06:13:35.568Z,101679.06
2023-05-22T06:16:06.428Z,101679.55
2023-05-22T06:18:36.168Z,101680.56
2023-05-22T06:21:46.184Z,101680.27
2023-05-22T06:24:24.270Z,101682.27
2023-05-22T06:27:09.168Z,101688.28
2023-05-22T06:30:09.063Z,101688.54
2023-05-22T06:33:08.580Z,101692.33
2023-05-22T06:35:50.820Z,101695.36
2023-05-22T06:38:41.502Z,101698.38
2023-05-22T06:41:30.020Z,101700.49
2023-05-22T06:44:12.292Z,101702.92
2023-05-22T06:47:04.281Z,101703.48
2023-05-22T06:50:03.420Z,101701.52
2023-05-22T06:52:56.112Z,101702.27
2023-05-22T06:55:49.173Z,101704.10
2023-05-22T06:58:58.827Z,101708.27
2023-05-22T07:01:59.946Z,101710.67
2023-05-22T07:04:31.876Z,101718.11
2023-05-22T07:07:28.247Z,101717.15
2023-05-22T07:10:30.702Z,101721.65
2023-05-22T07:13:09.579Z,101724.23
2023-05-22T07:15:58.631Z,101729.83
2023-05-22T07:18:51.482Z,101732.14
2023-05-22T07:21:26.729Z,101736.23
2023-05-22T07:24:24.256Z,101740.79
2023-05-22T07:27:13.855Z,101736.30
2023-05-22T07:29:54.435Z,101742.20
2023-05-22T07:33:05.005Z,101745.75
2023-05-22T07:35:44.671Z,101751.55
2023-05-22T07:38:36.676Z,101755.55
2023-05-22T07:41:15.757Z,101757.38
2023-05-22T07:44:15.309Z,101763.13
2023-05-22T07:46:55.872Z,101769.25
2023-05-22T07:50:04.462Z,101777.92
2023-05-22T07:53:14.365Z,101776.70
2023-05-22T07:56:08.541Z,101781.59
2023-05-22T07:59:18.110Z,101785.17
2023-05-22T08:02:16.068Z,101790.59
2023-05-22T08:04:53.951Z,101788.75
2023-05-22T08:08:03.274Z,101790.11
2023-05-22T08:14:02.610Z,101787.23
2023-05-22T08:16:52.213Z,101787.39
2023-05-22T08:20:02.556Z,101787.11
2023-05-22T08:23:01.844Z,101792.96
2023-05-22T08:26:10.758Z,101792.72
2023-05-22T08:29:12.091Z,101794.59
2023-05-22T08:32:22.078Z,101799.22
2023-05-22T08:35:22.059Z,101800.80
2023-05-22T08:38:01.809Z,101802.27
2023-05-22T08:40:54.029Z,101804.83
2023-05-22T08:43:56.024Z,101801.79
2023-05-22T08:46:38.795Z,101798.89
2023-05-22T08:49:27.786Z,101800.45
2023-05-22T08:52:32.463Z,101802.37
2023-05-22T08:55:43.823Z,101805.80
2023-05-22T08:58:54.531Z,101801.98
2023-05-22T09:01:35.056Z,101803.11
2023-05-22T09:04:45.229Z,101802.02
2023-05-22T09:07:45.440Z,101806.06
2023-05-22T09:10:54.142Z,101803.86
2023-05-22T09:13:37.163Z,101801.84
2023-05-22T09:16:33.218Z,101798.67
2023-05-22T09:19:32.033Z,101799.13
2023-05-22T09:22:44.440Z,101802.30
2023-05-22T09:25:53.780Z,101802.79
2023-05-22T09:28:44.709Z,101802.61
2023-05-22T09:31:16.708Z,101801.66
2023-05-22T09:33:49.000Z,101799.83
2023-05-22T09:36:50.915Z,101796.27
2023-05-22T09:39:42.395Z,101797.46
2023-05-22T09:42:51.589Z,101795.60
2023-05-22T09:45:43.132Z,101789.04
2023-05-22T09:48:47.413Z,101794.06
2023-05-22T09:51:46.432Z,101789.86
2023-05-22T09:54:49.962Z,101791.31
2023-05-22T09:57:28.753Z,101791.66
2023-05-22T10:00:28.117Z,101797.39
2023-05-22T10:03:28.835Z,101795.45
2023-05-22T10:06:13.706Z,101802.42
2023-05-22T10:09:10.867Z,101799.03
2023-05-22T10:12:04.272Z,101800.63
2023-05-22T10:15:11.806Z,101805.98
2023-05-22T10:18:20.941Z,101806.67
2023-05-22T10:21:10.821Z,101809.46
2023-05-22T10:24:04.933Z,101810.05
2023-05-22T10:27:03.912Z,101813.36
2023-05-22T10:29:49.398Z,101809.66
2023-05-22T10:32:56.022Z,101810.27
2023-05-22T10:36:03.481Z,101812.48
2023-05-22T10:39:18.896Z,101813.05
2023-05-22T10:42:11.797Z,101813.61
2023-05-22T10:45:13.731Z,101809.91
2023-05-22T10:48:14.168Z,101811.61
2023-05-22T10:51:12.468Z,101810.39
2023-05-22T10:54:22.587Z,101809.71
2023-05-22T10:57:32.341Z,101809.71
2023-05-22T11:00:12.185Z,101805.30
2023-05-22T11:03:22.106Z,101807.70
2023-05-22T11:06:25.494Z,101804.57
2023-05-22T11:08:57.899Z,101805.80
2023-05-22T11:11:47.818Z,101802.81
2023-05-22T11:14:39.519Z,101801.14
2023-05-22T11:17:50.708Z,101798.05
2023-05-22T11:20:52.958Z,101798.19
2023-05-22T11:23:54.239Z,101798.79
2023-05-22T11:26:27.218Z,101800.88
2023-05-22T11:28:56.837Z,101803.77
2023-05-22T11:31:47.837Z,101804.89
2023-05-22T11:34:56.052Z,101803.88
2023-05-22T11:37:29.276Z,101802.92
2023-05-22T11:40:38.169Z,101806.98
2023-05-22T11:43:40.817Z,101808.15
2023-05-22T11:46:35.507Z,101810.13
2023-05-22T11:49:29.440Z,101806.97
2023-05-22T11:52:39.515Z,101805.20
2023-05-22T11:55:24.365Z,101805.73
2023-05-22T11:58:15.402Z,101804.66
2023-05-22T12:01:18.822Z,101802.06
2023-05-22T12:03:47.512Z,101805.94
2023-05-22T12:06:56.578Z,101803.13
2023-05-22T12:10:06.560Z,101802.52
2023-05-22T12:13:17.968Z,101800.44
2023-05-22T12:16:18.537Z,101796.92
2023-05-22T12:19:08.740Z,101791.05
2023-05-22T12:22:23.543Z,101788.27
2023-05-22T12:25:20.588Z,101787.92
2023-05-22T12:28:22.327Z,101786.09
2023-05-22T12:31:36.294Z,101786.44
2023-05-22T12:34:17.990Z,101784.08
2023-05-22T12:37:27.408Z,101786.27
2023-05-22T12:40:36.603Z,101785.77
2023-05-22T12:43:16.790Z,101785.73
2023-05-22T12:46:19.745Z,101788.53
2023-05-22T12:48:48.105Z,101789.05
2023-05-22T12:51:18.568Z,101789.41
2023-05-22T12:54:31.261Z,101787.39
2023-05-22T12:57:42.389Z,101783.70
2023-05-22T13:00:40.354Z,101780.09
2023-05-22T13:03:14.206Z,101778.19
2023-05-22T13:06:24.385Z,101777.64
2023-05-22T13:09:33.952Z,101776.49
2023-05-22T13:12:44.653Z,101772.83
2023-05-22T13:15:29.436Z,101774.91
2023-05-22T13:18:18.372Z,101769.89
2023-05-22T13:21:27.368Z,101773.61
2023-05-22T13:24:17.511Z,101774.27
2023-05-22T13:27:26.347Z,101773.21
2023-05-22T13:30:18.582Z,101777.84
2023-05-22T13:33:11.593Z,101780.89
2023-05-22T13:36:21.197Z,101779.71
2023-05-22T13:39:30.978Z,101781.02
2023-05-22T13:42:30.096Z,101785.08
2023-05-22T13:45:31.261Z,101787.13
2023-05-22T13:48:21.614Z,101790.66
2023-05-22T13:51:10.189Z,101792.27
2023-05-22T13:53:48.342Z,101794.66
2023-05-22T13:56:38.235Z,101790.18
2023-05-22T13:59:35.456Z,101786.09
2023-05-22T14:02:07.964Z,101785.28
2023-05-22T14:04:53.277Z,101780.07
2023-05-22T14:07:54.865Z,101773.52
2023-05-22T14:10:53.272Z,101774.43
2023-05-22T14:13:58.846Z,101769.70
2023-05-22T14:16:53.624Z,101761.20
2023-05-22T14:19:45.659Z,101760.01
2023-05-22T14:22:24.037Z,101760.76
2023-05-22T14:25:17.022Z,101763.58
2023-05-22T14:27:49.502Z,101768.21
2023-05-22T14:30:43.163Z,101765.22
2023-05-22T14:33:18.245Z,101753.57
2023-05-22T14:36:03.135Z,101762.34
2023-05-22T14:39:03.116Z,101760.05
2023-05-22T14:42:14.519Z,101757.17
2023-05-22T14:45:28.873Z,101754.37
2023-05-22T14:48:11.080Z,101756.22
2023-05-22T14:51:22.544Z,101757.81
2023-05-22T14:54:34.583Z,101756.81
2023-05-22T14:57:17.468Z,101753.11
2023-05-22T15:00:27.109Z,101753.36
2023-05-22T15:03:28.784Z,101760.59
2023-05-22T15:06:38.143Z,101757.97
2023-05-22T15:09:42.037Z,101757.88
2023-05-22T15:12:45.164Z,101757.60
2023-05-22T15:15:39.068Z,101755.70
2023-05-22T15:18:31.934Z,101749.64
2023-05-22T15:21:34.660Z,101752.84
2023-05-22T15:24:24.320Z,101757.23
2023-05-22T15:27:25.493Z,101756.80
2023-05-22T15:30:18.721Z,101756.58
2023-05-22T15:33:09.222Z,101759.32
2023-05-22T15:35:39.346Z,101762.11
2023-05-22T15:38:13.307Z,101764.48
2023-05-22T15:41:08.054Z,101768.33
2023-05-22T15:44:05.967Z,101763.67
2023-05-22T15:46:39.948Z,101767.67
2023-05-22T15:49:34.737Z,101770.05
2023-05-22T15:52:25.654Z,101767.11
2023-05-22T15:55:05.184Z,101770.95
2023-05-22T15:58:15.167Z,101771.00
2023-05-22T16:01:24.944Z,101772.80
2023-05-22T16:04:34.967Z,101777.33
2023-05-22T16:07:28.145Z,101778.35
2023-05-22T16:10:05.758Z,101779.06
2023-05-22T16:13:05.494Z,101782.78
2023-05-22T16:16:08.128Z,101787.65
2023-05-22T16:19:12.720Z,101786.98
2023-05-22T16:21:40.945Z,101797.65
2023-05-22T16:24:51.584Z,101800.91
2023-05-22T16:27:25.034Z,101798.13
2023-05-22T16:29:54.453Z,101791.27
2023-05-22T16:32:24.410Z,101798.40
2023-05-22T16:35:10.278Z,101797.55
2023-05-22T16:37:42.353Z,101799.05
2023-05-22T16:40:19.258Z,101802.77
2023-05-22T16:42:52.823Z,101798.52
2023-05-22T16:45:28.925Z,101808.13
2023-05-22T16:48:09.038Z,101812.12
2023-05-22T16:50:43.918Z,101815.47
2023-05-22T16:53:17.741Z,101815.48
2023-05-22T16:55:47.381Z,101811.95
2023-05-22T16:58:26.804Z,101809.09
2023-05-22T17:01:16.476Z,101816.80
2023-05-22T17:03:45.381Z,101815.48
2023-05-22T17:06:14.001Z,101811.97
2023-05-22T17:08:44.152Z,101813.33
2023-05-22T17:11:13.091Z,101808.15
2023-05-22T17:14:23.004Z,101806.56
2023-05-22T17:16:54.963Z,101815.06
2023-05-22T17:19:24.724Z,101806.51
2023-05-22T17:22:18.473Z,101809.91
2023-05-22T17:24:48.737Z,101813.55
2023-05-22T17:27:31.934Z,101812.27
2023-05-22T17:30:09.759Z,101813.36
2023-05-22T17:32:40.791Z,101814.32
2023-05-22T17:35:10.343Z,101816.02
2023-05-22T17:37:39.295Z,101823.66
2023-05-22T17:40:43.215Z,101833.65
2023-05-22T17:43:16.812Z,101839.70
2023-05-22T17:45:55.010Z,101842.52
2023-05-22T17:48:28.766Z,101839.83
2023-05-22T17:50:57.811Z,101845.39
2023-05-22T17:53:36.175Z,101854.05
2023-05-22T17:56:08.635Z,101856.55
2023-05-22T17:58:59.515Z,101862.83
2023-05-22T18:01:32.991Z,101867.27
2023-05-22T18:04:05.546Z,101866.86
2023-05-22T18:06:35.134Z,101864.88
2023-05-22T18:09:19.238Z,101864.64
2023-05-22T18:12:06.124Z,101866.64
2023-05-22T18:14:56.996Z,101869.70
2023-05-22T18:17:32.672Z,101875.10
2023-05-22T18:20:30.845Z,101881.90
2023-05-22T18:23:40.702Z,101883.69
2023-05-22T18:26:12.974Z,101888.88
2023-05-22T18:29:10.798Z,101887.31
2023-05-22T18:31:40.220Z,101897.08
2023-05-22T18:34:37.347Z,101905.35
2023-05-22T18:37:10.795Z,101906.52
2023-05-22T18:39:53.216Z,101904.65
2023-05-22T18:42:27.123Z,101904.94
2023-05-22T18:45:22.035Z,101912.10
2023-05-22T18:47:56.942Z,101916.92
2023-05-22T18:50:49.877Z,101918.91
2023-05-22T18:53:40.723Z,101920.65
2023-05-22T18:56:14.573Z,101929.25
2023-05-22T18:58:56.603Z,101935.06
2023-05-22T19:01:52.468Z,101936.78
2023-05-22T19:05:04.404Z,101942.02
2023-05-22T19:07:52.489Z,101955.16
2023-05-22T19:10:53.227Z,101964.20
2023-05-22T19:13:53.407Z,101963.19
2023-05-22T19:17:01.074Z,101966.69
2023-05-22T19:20:01.694Z,101968.77
2023-05-22T19:23:15.774Z,101967.30
2023-05-22T19:26:15.710Z,101968.46
2023-05-22T19:29:10.630Z,101980.67
2023-05-22T19:32:23.526Z,101984.57
2023-05-22T19:35:21.514Z,101985.88
2023-05-22T19:37:56.608Z,101992.95
2023-05-22T19:41:09.032Z,101994.92
2023-05-22T19:43:59.934Z,101990.27
2023-05-22T19:47:12.028Z,102001.29
2023-05-22T19:50:22.889Z,102006.08
2023-05-22T19:53:27.881Z,102016.23
2023-05-22T19:56:39.734Z,102024.27
2023-05-22T19:59:39.618Z,102025.89
2023-05-22T20:02:43.912Z,102032.65
2023-05-22T20:05:45.393Z,102036.89
2023-05-22T20:08:52.979Z,102041.86
2023-05-22T20:12:04.230Z,102043.19
2023-05-22T20:15:16.825Z,102050.52
2023-05-22T20:18:29.011Z,102064.71
2023-05-22T20:21:01.710Z,102069.98
2023-05-22T20:24:03.483Z,102074.73
2023-05-22T20:27:13.300Z,102081.85
2023-05-22T20:29:54.613Z,102093.75
2023-05-22T20:32:57.522Z,102099.62
2023-05-22T20:35:50.258Z,102100.16
2023-05-22T20:39:01.107Z,102103.27
2023-05-22T20:41:55.858Z,102108.63
2023-05-22T20:44:33.108Z,102107.85
2023-05-22T20:47:43.111Z,102104.71
2023-05-22T20:50:54.295Z,102103.21
2023-05-22T20:53:59.877Z,102106.36
2023-05-22T20:57:09.465Z,102109.15
2023-05-22T21:00:10.631Z,102107.17
2023-05-22T21:03:24.172Z,102115.21
2023-05-22T21:06:28.912Z,102115.81
2023-05-22T21:09:39.042Z,102121.42
2023-05-22T21:12:49.277Z,102127.69
2023-05-22T21:15:59.373Z,102130.44
2023-05-22T21:19:09.643Z,102132.04
2023-05-22T21:22:18.880Z,102129.48
2023-05-22T21:25:28.790Z,102134.98
2023-05-22T21:28:39.140Z,102137.98
2023-05-22T21:31:51.588Z,102149.15
2023-05-22T21:35:03.473Z,102156.23
2023-05-22T21:38:06.996Z,102153.84
2023-05-22T21:41:17.901Z,102156.17
2023-05-22T21:44:12.248Z,102155.39
2023-05-22T21:47:09.076Z,102152.58
2023-05-22T21:50:18.791Z,102151.63
2023-05-22T21:53:28.933Z,102150.80
2023-05-22T21:56:39.682Z,102155.79
2023-05-22T21:59:50.388Z,102160.10
2023-05-22T22:02:59.666Z,102164.66
2023-05-22T22:05:49.465Z,102168.90
2023-05-22T22:09:00.397Z,102171.31
2023-05-22T22:12:07.315Z,102172.44
2023-05-22T22:15:19.195Z,102170.27
2023-05-22T22:18:30.079Z,102168.96
2023-05-22T22:21:37.981Z,102173.16
2023-05-22T22:24:36.959Z,102177.77
2023-05-22T22:27:21.799Z,102176.11
2023-05-22T22:30:24.811Z,102179.44
2023-05-22T22:33:34.046Z,102184.05
2023-05-22T22:36:34.505Z,102189.68
2023-05-22T22:39:34.786Z,102195.61
2023-05-22T22:42:45.242Z,102200.55
2023-05-22T22:45:34.169Z,102198.62
2023-05-22T22:48:45.116Z,102203.42
2023-05-22T22:51:37.251Z,102201.73
2023-05-22T22:54:22.839Z,102207.99
2023-05-22T22:57:09.809Z,102209.14
2023-05-22T23:00:19.794Z,102201.30
2023-05-22T23:03:20.650Z,102201.48
2023-05-22T23:05:59.162Z,102199.88
2023-05-22T23:09:01.437Z,102198.90
2023-05-22T23:12:09.432Z,102199.86
2023-05-22T23:14:38.660Z,102216.61
2023-05-22T23:17:08.351Z,102213.00
2023-05-22T23:20:08.850Z,102211.86
2023-05-22T23:23:11.986Z,102212.12
2023-05-22T23:25:59.895Z,102216.39
2023-05-22T23:28:50.765Z,102218.70
2023-05-22T23:31:21.719Z,102230.31
2023-05-22T23:34:06.630Z,102232.33
2023-05-22T23:36:49.731Z,102240.80
2023-05-22T23:39:34.622Z,102240.23
2023-05-22T23:42:22.358Z,102241.00
2023-05-22T23:45:12.329Z,102242.11
2023-05-22T23:48:12.035Z,102244.56
2023-05-22T23:51:03.154Z,102244.09
2023-05-22T23:53:32.005Z,102236.28
2023-05-22T23:56:05.342Z,102238.81
2023-05-22T23:58:34.822Z,102239.75
